Airfield :
LOGIN :

Register | Disclaimer

   EN    FR    IT 

 










Legend :    VFR   Marginal VFR   IFR   Intensive IFR   Very Intensive IFR
Visi :
Ceiling :
>= 8 km
>= 3000ft
5 to 8 km
1000 to 3000 ft
1500m to 5 km
500 to 1000 ft
800 to 1500m
200 to 500 ft
< 800m
< 200 ft
Symbols :   Thunderstorms  Fog  Heavy snow  Heavy precipitations  Wind > 20 kt
SIGMETs :     Misc.  Thunderstorms  Icing  Turbulence  Mountain Waves  Volcanic Ashes







- Airport Elevation : 24 ft
- IATA code : SGD


EKSB - Sonderborg

CURRENT METAR :
  • 240950Z 07004KT 9999 BKN007 BKN012 16/15 Q1024

EXPIRED METARs :
  • 240923Z 06006KT 9999 BKN007 BKN014 16/15 Q1024
  • 240850Z 04005KT 9999 BKN007 16/15 Q1024
  • 240820Z 03006KT 8000 SCT005 BKN009 16/15 Q1024
  • 240750Z AUTO 02005KT 9999NDV SCT006/// BKN025/// BKN046/// 15/15 Q1024
  • 240720Z AUTO 02005KT 9999NDV SCT006/// BKN045/// 15/15 Q1024

TAF TAF EKSB
Valid from the 24 at 09:00 until the 24 at 18:00 UTC


240901Z 2409/2418 07008KT 9000 BKN007
BECMG 2409/2411 BKN045
TEMPO 2411/2415 BKN012
No reported NOTAMs for that airfield.



MET'MAP, your aeronautical weather chart ! - Copyright ORBIFLY December 2007 - Disclaimer

ORBIFLY MET'MAP TEAM :

Programming & Development : Alexandra Zaïnal
Concept & Development : Baudouin d'Aumeries
Co-Development & Prog : Marc-Olivier Méhu
Technical & hardware support : Manuel Goepfert

Contact : metmap@orbifly.com




SOURCES & CREDITS :

   NOAA